FTUS41 KABE 240524
KABE 240521Z 2406/2506 VRB03KT P6SM OVC100
     FM240800 VRB03KT P6SM VCSH SCT020 OVC040
      TEMPO 2408/2412 4SM -SHRA BR BKN020 OVC035
     FM241200 10005KT 4SM -SHRA BR VCTS OVC015CB
      TEMPO 2412/2415 2SM SHRA BR OVC010
     FM241500 13005KT 4SM -SHRA BR VCTS OVC015CB
     FM241700 16005KT P6SM VCSH BKN025
     FM242100 19005KT P6SM VCSH SCT025 BKN050